MOL Celebration — C6WW7 — position and weather

sailwx.info

Track history (hours):
 
Tides and Currents Weather Stations Pressure Air Temp Water Temp Dewpoint Dewpoint Depression Visibility Wind Speed Wind Dir Waves Ship Positions

MOL Celebration

Last reported at 2017-Aug-19 00:00 UTC. Time now 2017-Aug-19 09:23 UTC.
Position N 47°42' W 176°18'.

Length 316 m; draft 12.4 m.

Type: Ship (hazmat cat D). MMSI: 309901000.

Wind from 340 at 27 knots

Barometer 1001.3 mb
Air temperature 13.0 ° C
Visibility: greater than 5.4 NM
Water temperature 12.0 ° C

Date/timePositionNaut miles runAvg speedWind from/ knotsBaromVisibWave heightAir tempDewpointWater temp
2017-Aug-19 00:00N 47°42' W 176°18'   340 / 271001.3 5.4 13.0 12.0
2017-Aug-14 07:34N 38°30' W 124°06'121.1
2017-Aug-14 07:30N 38°29' W 124°04'1020.8
2017-Aug-14 07:01N 38°24' W 123°53'1121.1
2017-Aug-14 06:30N 38°19' W 123°41'1020.0
2017-Aug-14 06:00N 38°14' W 123°30'815.3
2017-Aug-14 05:30N 38°10' W 123°22'5 9.5
2017-Aug-14 05:00N 38°06' W 123°17'5 9.6
2017-Aug-14 04:30N 38°03' W 123°13'5 9.8
2017-Aug-14 04:00N 37°59' W 123°09'5 9.5
2017-Aug-14 03:30N 37°57' W 123°04'5 9.6
2017-Aug-14 03:00N 37°54' W 122°59'5 9.4
2017-Aug-14 02:30N 37°52' W 122°54'5 9.8
2017-Aug-14 02:00N 37°50' W 122°48'5 9.8
2017-Aug-14 01:30N 37°47' W 122°43'4 7.9
2017-Aug-14 01:00N 37°46' W 122°38'611.3
2017-Aug-14 00:30N 37°48' W 122°32'510.0
2017-Aug-14 00:00N 37°51' W 122°26'5 9.1
2017-Aug-13 23:30N 37°48' W 122°21'1 2.6
2017-Aug-13 23:00N 37°49' W 122°20'0 0.2
2017-Aug-13 22:29N 37°49' W 122°20'0 0.0
2017-Aug-13 21:59N 37°49' W 122°20'0 0.0
2017-Aug-13 21:29N 37°49' W 122°20'0 0.0
2017-Aug-13 20:59N 37°49' W 122°20'0 0.0
2017-Aug-13 20:29N 37°49' W 122°20'0 0.0
2017-Aug-13 19:59N 37°49' W 122°20'0 0.0
2017-Aug-13 19:29N 37°49' W 122°20'0 0.0
2017-Aug-13 18:59N 37°49' W 122°20'0 0.0
2017-Aug-13 18:29N 37°49' W 122°20'0 0.0
2017-Aug-13 17:59N 37°49' W 122°20'0 0.0
2017-Aug-13 17:29N 37°49' W 122°20'0 0.0
2017-Aug-13 16:59N 37°49' W 122°20'0 0.0
2017-Aug-13 16:29N 37°49' W 122°20'0 0.0
2017-Aug-13 15:59N 37°49' W 122°20'0 0.0
2017-Aug-13 15:29N 37°49' W 122°20'0 0.0
2017-Aug-13 14:59N 37°49' W 122°20'0 0.0
2017-Aug-13 14:29N 37°49' W 122°20'0 0.0
2017-Aug-13 13:59N 37°49' W 122°20'0 0.1
2017-Aug-13 13:29N 37°49' W 122°20'0 0.1
2017-Aug-13 12:59N 37°49' W 122°20'0 0.1
2017-Aug-13 12:29N 37°49' W 122°20'0 0.0
2017-Aug-13 11:59N 37°49' W 122°20'0 0.0
2017-Aug-13 11:29N 37°49' W 122°20'0 0.1
2017-Aug-13 10:59N 37°49' W 122°20'0 0.1
2017-Aug-13 10:29N 37°49' W 122°20'0 0.1
2017-Aug-13 09:59N 37°49' W 122°20'0 0.0
2017-Aug-13 09:29N 37°49' W 122°20'0 0.0
2017-Aug-13 08:59N 37°49' W 122°20'0 0.0
2017-Aug-13 08:29N 37°49' W 122°20'0 0.0
2017-Aug-13 07:59N 37°49' W 122°20'0 0.0
2017-Aug-13 07:29N 37°49' W 122°20'0 0.0
2017-Aug-13 06:59N 37°49' W 122°20'0 0.0
2017-Aug-13 06:29N 37°49' W 122°20'0 0.0
2017-Aug-13 05:59N 37°49' W 122°20'0 0.0
2017-Aug-13 05:29N 37°49' W 122°20'0 0.0
2017-Aug-13 04:59N 37°49' W 122°20'0 0.0
2017-Aug-13 04:29N 37°49' W 122°20'0 0.0
2017-Aug-13 03:59N 37°49' W 122°20'0 0.0
2017-Aug-13 03:29N 37°49' W 122°20'0 0.0
2017-Aug-13 02:59N 37°49' W 122°20'0 0.0
2017-Aug-13 02:29N 37°49' W 122°20'0 0.0
2017-Aug-13 01:59N 37°49' W 122°20'0 0.0
2017-Aug-13 01:29N 37°49' W 122°20'0 0.0
2017-Aug-13 00:59N 37°49' W 122°20'0 0.0
2017-Aug-13 00:28N 37°49' W 122°20'0 0.0
2017-Aug-12 23:58N 37°49' W 122°20'0 0.0
2017-Aug-12 23:29N 37°49' W 122°20'0 0.0
2017-Aug-12 22:59N 37°49' W 122°20'0 0.0
2017-Aug-12 22:28N 37°49' W 122°20'0 0.0
2017-Aug-12 21:58N 37°49' W 122°20'0 0.0
2017-Aug-12 21:29N 37°49' W 122°20'0 0.0
2017-Aug-12 20:58N 37°49' W 122°20'0 0.0
2017-Aug-12 20:29N 37°49' W 122°20'0 0.0
2017-Aug-12 19:59N 37°49' W 122°20'0 0.0
2017-Aug-12 19:26N 37°49' W 122°20'0 0.0
2017-Aug-12 18:59N 37°49' W 122°20'0 0.0
2017-Aug-12 18:29N 37°49' W 122°20'0 0.0
2017-Aug-12 17:59N 37°49' W 122°20'0 0.0
2017-Aug-12 17:28N 37°49' W 122°20'0 0.0
2017-Aug-12 16:59N 37°49' W 122°20'0 0.0
2017-Aug-12 16:29N 37°49' W 122°20'0 0.0
2017-Aug-12 15:59N 37°49' W 122°20'0 0.0
2017-Aug-12 15:29N 37°49' W 122°20'0 0.0
2017-Aug-12 14:58N 37°49' W 122°20'0 0.0
2017-Aug-12 14:29N 37°49' W 122°20'0 0.0
2017-Aug-12 13:58N 37°49' W 122°20'0 0.0
2017-Aug-12 13:29N 37°49' W 122°20'0 0.0
2017-Aug-12 12:59N 37°49' W 122°20'0 0.0
2017-Aug-12 12:29N 37°49' W 122°20'0 0.0
2017-Aug-12 11:59N 37°49' W 122°20'0 0.0
2017-Aug-12 11:29N 37°49' W 122°20'0 0.0
2017-Aug-12 10:59N 37°49' W 122°20'0 0.0
2017-Aug-12 10:29N 37°49' W 122°20'0 0.0
2017-Aug-12 09:59N 37°49' W 122°20'0 0.0
2017-Aug-12 09:28N 37°49' W 122°20'0 0.0
2017-Aug-12 08:59N 37°49' W 122°20'0 0.0
2017-Aug-12 08:29N 37°49' W 122°20'0 0.0
2017-Aug-12 07:58N 37°49' W 122°20'0 0.0
2017-Aug-12 07:29N 37°49' W 122°20'0 0.0
2017-Aug-12 06:58N 37°49' W 122°20'0 0.0
2017-Aug-12 06:28N 37°49' W 122°20'0 0.0
2017-Aug-12 05:59N 37°49' W 122°20'0 0.0
2017-Aug-12 05:25N 37°49' W 122°20'0 0.0
2017-Aug-12 04:58N 37°49' W 122°20'0 0.0
2017-Aug-12 04:29N 37°49' W 122°20'0 0.0
2017-Aug-12 03:59N 37°49' W 122°20'0 0.0
2017-Aug-12 03:29N 37°49' W 122°20'0 0.0
2017-Aug-12 02:58N 37°49' W 122°20'0 0.0
2017-Aug-12 02:28N 37°49' W 122°20'0 0.0
2017-Aug-12 01:56N 37°49' W 122°20'0 0.0
2017-Aug-12 01:29N 37°49' W 122°20'0 0.0
2017-Aug-12 00:58N 37°49' W 122°20'0 0.0
2017-Aug-12 00:30N 37°49' W 122°20'1 1.8
2017-Aug-12 00:00N 37°48' W 122°21'2 3.4
2017-Aug-11 23:31N 37°49' W 122°23'4 7.5
2017-Aug-11 23:00N 37°49' W 122°28'714.4
2017-Aug-11 22:31N 37°46' W 122°36'510.2
2017-Aug-11 22:00N 37°43' W 122°41'815.4
2017-Aug-11 21:31N 37°36' W 122°40'1122.4
2017-Aug-11 21:01N 37°25' W 122°40'1122.3
2017-Aug-11 20:30N 37°13' W 122°39'1122.1
2017-Aug-11 20:01N 37°03' W 122°35'1121.9
2017-Aug-11 19:30N 36°52' W 122°32'1121.9
2017-Aug-11 19:01N 36°42' W 122°27'1222.7
2017-Aug-11 18:30N 36°31' W 122°22'1123.2
2017-Aug-11 18:00N 36°20' W 122°17'3222.5
2017-Aug-11 16:34N 35°53' W 121°56'122.3
2017-Aug-11 16:30N 35°52' W 121°55'2322.4
2017-Aug-11 15:29N 35°32' W 121°41'1122.4
2017-Aug-11 15:01N 35°23' W 121°34'1122.8
2017-Aug-11 14:30N 35°13' W 121°26'2322.5
2017-Aug-11 13:30N 34°54' W 121°12'1123.0
2017-Aug-11 13:01N 34°44' W 121°05'1122.6
2017-Aug-11 12:30N 34°34' W 120°58'1121.6
2017-Aug-11 12:01N 34°26' W 120°50'1223.1
2017-Aug-11 11:31N 34°23' W 120°36'1223.2
2017-Aug-11 11:00N 34°20' W 120°22'1223.5
2017-Aug-11 10:30N 34°17' W 120°09'1223.1
2017-Aug-11 10:00N 34°14' W 119°55'1122.6
2017-Aug-11 09:30N 34°11' W 119°42'1122.8
2017-Aug-11 09:01N 34°07' W 119°29'1122.2
2017-Aug-11 08:30N 34°05' W 119°16'918.0
2017-Aug-11 08:00N 34°00' W 119°06'713.5
2017-Aug-11 07:30N 33°57' W 118°59'611.7
2017-Aug-11 07:00N 33°54' W 118°53'3 6.9
2017-Aug-11 06:30N 33°52' W 118°50'611.2
2017-Aug-11 06:00N 33°49' W 118°44'611.6
2017-Aug-11 05:30N 33°47' W 118°38'611.7
2017-Aug-11 05:00N 33°44' W 118°32'611.7
2017-Aug-11 04:30N 33°41' W 118°26'611.5
2017-Aug-11 04:00N 33°38' W 118°19'4 9.1
2017-Aug-11 03:31N 33°41' W 118°15'3 6.3
2017-Aug-11 03:01N 33°44' W 118°16'1 2.7
2017-Aug-11 02:31N 33°45' W 118°16'0 0.7
2017-Aug-11 01:59N 33°45' W 118°16'0 0.0
2017-Aug-11 01:17N 33°45' W 118°16'0 0.0
2017-Aug-11 00:59N 33°45' W 118°16'0 0.0
2017-Aug-11 00:29N 33°45' W 118°16'0 0.0
2017-Aug-10 23:59N 33°45' W 118°16'0 0.0
2017-Aug-10 23:29N 33°45' W 118°16'0 0.0
2017-Aug-10 22:59N 33°45' W 118°16'0 0.0
2017-Aug-10 22:29N 33°45' W 118°16'0 0.0
2017-Aug-10 21:59N 33°45' W 118°16'0 0.0
2017-Aug-10 21:29N 33°45' W 118°16'0 0.0
2017-Aug-10 20:59N 33°45' W 118°16'0 0.0
2017-Aug-10 20:29N 33°45' W 118°16'0 0.0
2017-Aug-10 19:59N 33°45' W 118°16'0 0.0
2017-Aug-10 19:29N 33°45' W 118°16'0 0.0
2017-Aug-10 18:56N 33°45' W 118°16'0 0.0
2017-Aug-10 18:29N 33°45' W 118°16'0 0.0
2017-Aug-10 17:59N 33°45' W 118°16'0 0.0
2017-Aug-10 17:29N 33°45' W 118°16'0 0.0
2017-Aug-10 16:59N 33°45' W 118°16'0 0.0
2017-Aug-10 16:29N 33°45' W 118°16'0 0.0
2017-Aug-10 15:59N 33°45' W 118°16'0 0.0
2017-Aug-10 15:29N 33°45' W 118°16'0 0.0
2017-Aug-10 14:59N 33°45' W 118°16'0 0.0
2017-Aug-10 14:29N 33°45' W 118°16'0 0.0
2017-Aug-10 13:56N 33°45' W 118°16'0 0.0
2017-Aug-10 13:29N 33°45' W 118°16'0 0.0
2017-Aug-10 12:53N 33°45' W 118°16'0 0.0
2017-Aug-10 12:29N 33°45' W 118°16'0 0.0
2017-Aug-10 11:59N 33°45' W 118°16'0 0.0
2017-Aug-10 11:29N 33°45' W 118°16'0 0.0
2017-Aug-10 10:56N 33°45' W 118°16'0 0.0
2017-Aug-10 10:29N 33°45' W 118°16'0 0.0
2017-Aug-10 09:59N 33°45' W 118°16'0 0.0
2017-Aug-10 09:29N 33°45' W 118°16'0 0.0
2017-Aug-10 08:59N 33°45' W 118°16'0 0.0
2017-Aug-10 08:29N 33°45' W 118°16'0 0.0
2017-Aug-10 07:59N 33°45' W 118°16'0 0.0
2017-Aug-10 07:29N 33°45' W 118°16'0 0.0
2017-Aug-10 06:59N 33°45' W 118°16'0 0.0
2017-Aug-10 06:29N 33°45' W 118°16'0 0.0
2017-Aug-10 05:59N 33°45' W 118°16'0 0.0
2017-Aug-10 05:29N 33°45' W 118°16'0 0.0
2017-Aug-10 04:59N 33°45' W 118°16'0 0.0
2017-Aug-10 04:29N 33°45' W 118°16'0 0.0
2017-Aug-10 03:59N 33°45' W 118°16'0 0.0
2017-Aug-10 03:29N 33°45' W 118°16'0 0.0
2017-Aug-10 02:59N 33°45' W 118°16'0 0.0
2017-Aug-10 02:29N 33°45' W 118°16'0 0.0
2017-Aug-10 01:59N 33°45' W 118°16'0 0.0
2017-Aug-10 01:29N 33°45' W 118°16'0 0.0
2017-Aug-10 00:59N 33°45' W 118°16'0 0.0
2017-Aug-10 00:29N 33°45' W 118°16'0 0.0
2017-Aug-09 23:59N 33°45' W 118°16'0 0.0
2017-Aug-09 23:29N 33°45' W 118°16'0 0.0
2017-Aug-09 22:59N 33°45' W 118°16'0 0.0
2017-Aug-09 22:29N 33°45' W 118°16'0 0.0
2017-Aug-09 21:59N 33°45' W 118°16'0 0.0
2017-Aug-09 21:29N 33°45' W 118°16'0 0.0
2017-Aug-09 20:59N 33°45' W 118°16'0 0.0
2017-Aug-09 20:29N 33°45' W 118°16'0 0.0
2017-Aug-09 19:59N 33°45' W 118°16'0 0.0
2017-Aug-09 19:29N 33°45' W 118°16'0 0.0
2017-Aug-09 18:59N 33°45' W 118°16'0 0.0
2017-Aug-09 18:26N 33°45' W 118°16'0 0.0
2017-Aug-09 17:56N 33°45' W 118°16'0 0.0
2017-Aug-09 17:29N 33°45' W 118°16'0 0.0
2017-Aug-09 16:59N 33°45' W 118°16'0 0.0
2017-Aug-09 16:29N 33°45' W 118°16'0 0.0
2017-Aug-09 15:59N 33°45' W 118°16'0 0.0
2017-Aug-09 15:29N 33°45' W 118°16'0 0.0
2017-Aug-09 14:59N 33°45' W 118°16'0 0.0
2017-Aug-09 14:29N 33°45' W 118°16'0 0.0
2017-Aug-09 13:59N 33°45' W 118°16'0 0.0
2017-Aug-09 13:29N 33°45' W 118°16'0 0.0
2017-Aug-09 12:59N 33°45' W 118°16'0 0.0
2017-Aug-09 12:17N 33°45' W 118°16'0 0.0
2017-Aug-09 11:59N 33°45' W 118°16'0 0.0
2017-Aug-09 11:29N 33°45' W 118°16'0 0.0
2017-Aug-09 10:59N 33°45' W 118°16'0 0.0
2017-Aug-09 10:29N 33°45' W 118°16'0 0.0
2017-Aug-09 09:59N 33°45' W 118°16'0 0.0
2017-Aug-09 09:29N 33°45' W 118°16'0 0.0
2017-Aug-09 08:59N 33°45' W 118°16'0 0.0
2017-Aug-09 08:29N 33°45' W 118°16'0 0.0
2017-Aug-09 07:59N 33°45' W 118°16'0 0.0
2017-Aug-09 07:29N 33°45' W 118°16'0 0.0
2017-Aug-09 06:59N 33°45' W 118°16'0 0.0
2017-Aug-09 06:26N 33°45' W 118°16'0 0.0
2017-Aug-09 05:59N 33°45' W 118°16'0 0.0
2017-Aug-09 05:26N 33°45' W 118°16'0 0.0
2017-Aug-09 04:59N 33°45' W 118°16'0 0.0
2017-Aug-09 04:29N 33°45' W 118°16'0 0.0
2017-Aug-09 03:59N 33°45' W 118°16'0 0.0
2017-Aug-09 03:29N 33°45' W 118°16'0 0.0
2017-Aug-09 02:59N 33°45' W 118°16'0 0.0
2017-Aug-09 02:29N 33°45' W 118°16'0 0.0
2017-Aug-09 01:59N 33°45' W 118°16'0 0.0
2017-Aug-09 01:29N 33°45' W 118°16'0 0.0
2017-Aug-09 00:59N 33°45' W 118°16'0 0.0
2017-Aug-09 00:29N 33°45' W 118°16'  
Track history (hours):
 
Tides and Currents Weather Stations Pressure Air Temp Water Temp Dewpoint Dewpoint Depression Visibility Wind Speed Wind Dir Waves Ship Positions

MOL Celebration

Last reported at 2017-Aug-19 00:00 UTC. Time now 2017-Aug-19 09:23 UTC.
Position N 47°42' W 176°18'.

Length 316 m; draft 12.4 m.

Type: Ship (hazmat cat D). MMSI: 309901000.

Wind from 340 at 27 knots

Barometer 1001.3 mb
Air temperature 13.0 ° C
Visibility: greater than 5.4 NM
Water temperature 12.0 ° C

Date/timePositionNaut miles runAvg speedWind from/ knotsBaromVisibWave heightAir tempDewpointWater temp
2017-Aug-19 00:00N 47°42' W 176°18'   340 / 271001.3 5.4 13.0 12.0
2017-Aug-14 07:34N 38°30' W 124°06'121.1
2017-Aug-14 07:30N 38°29' W 124°04'1020.8
2017-Aug-14 07:01N 38°24' W 123°53'1121.1
2017-Aug-14 06:30N 38°19' W 123°41'1020.0
2017-Aug-14 06:00N 38°14' W 123°30'815.3
2017-Aug-14 05:30N 38°10' W 123°22'5 9.5
2017-Aug-14 05:00N 38°06' W 123°17'5 9.6
2017-Aug-14 04:30N 38°03' W 123°13'5 9.8
2017-Aug-14 04:00N 37°59' W 123°09'5 9.5
2017-Aug-14 03:30N 37°57' W 123°04'5 9.6
2017-Aug-14 03:00N 37°54' W 122°59'5 9.4
2017-Aug-14 02:30N 37°52' W 122°54'5 9.8
2017-Aug-14 02:00N 37°50' W 122°48'5 9.8
2017-Aug-14 01:30N 37°47' W 122°43'4 7.9
2017-Aug-14 01:00N 37°46' W 122°38'611.3
2017-Aug-14 00:30N 37°48' W 122°32'510.0
2017-Aug-14 00:00N 37°51' W 122°26'5 9.1
2017-Aug-13 23:30N 37°48' W 122°21'1 2.6
2017-Aug-13 23:00N 37°49' W 122°20'0 0.2
2017-Aug-13 22:29N 37°49' W 122°20'0 0.0
2017-Aug-13 21:59N 37°49' W 122°20'0 0.0
2017-Aug-13 21:29N 37°49' W 122°20'0 0.0
2017-Aug-13 20:59N 37°49' W 122°20'0 0.0
2017-Aug-13 20:29N 37°49' W 122°20'0 0.0
2017-Aug-13 19:59N 37°49' W 122°20'0 0.0
2017-Aug-13 19:29N 37°49' W 122°20'0 0.0
2017-Aug-13 18:59N 37°49' W 122°20'0 0.0
2017-Aug-13 18:29N 37°49' W 122°20'0 0.0
2017-Aug-13 17:59N 37°49' W 122°20'0 0.0
2017-Aug-13 17:29N 37°49' W 122°20'0 0.0
2017-Aug-13 16:59N 37°49' W 122°20'0 0.0
2017-Aug-13 16:29N 37°49' W 122°20'0 0.0
2017-Aug-13 15:59N 37°49' W 122°20'0 0.0
2017-Aug-13 15:29N 37°49' W 122°20'0 0.0
2017-Aug-13 14:59N 37°49' W 122°20'0 0.0
2017-Aug-13 14:29N 37°49' W 122°20'0 0.0
2017-Aug-13 13:59N 37°49' W 122°20'0 0.1
2017-Aug-13 13:29N 37°49' W 122°20'0 0.1
2017-Aug-13 12:59N 37°49' W 122°20'0 0.1
2017-Aug-13 12:29N 37°49' W 122°20'0 0.0
2017-Aug-13 11:59N 37°49' W 122°20'0 0.0
2017-Aug-13 11:29N 37°49' W 122°20'0 0.1
2017-Aug-13 10:59N 37°49' W 122°20'0 0.1
2017-Aug-13 10:29N 37°49' W 122°20'0 0.1
2017-Aug-13 09:59N 37°49' W 122°20'0 0.0
2017-Aug-13 09:29N 37°49' W 122°20'0 0.0
2017-Aug-13 08:59N 37°49' W 122°20'0 0.0
2017-Aug-13 08:29N 37°49' W 122°20'0 0.0
2017-Aug-13 07:59N 37°49' W 122°20'0 0.0
2017-Aug-13 07:29N 37°49' W 122°20'0 0.0
2017-Aug-13 06:59N 37°49' W 122°20'0 0.0
2017-Aug-13 06:29N 37°49' W 122°20'0 0.0
2017-Aug-13 05:59N 37°49' W 122°20'0 0.0
2017-Aug-13 05:29N 37°49' W 122°20'0 0.0
2017-Aug-13 04:59N 37°49' W 122°20'0 0.0
2017-Aug-13 04:29N 37°49' W 122°20'0 0.0
2017-Aug-13 03:59N 37°49' W 122°20'0 0.0
2017-Aug-13 03:29N 37°49' W 122°20'0 0.0
2017-Aug-13 02:59N 37°49' W 122°20'0 0.0
2017-Aug-13 02:29N 37°49' W 122°20'0 0.0
2017-Aug-13 01:59N 37°49' W 122°20'0 0.0
2017-Aug-13 01:29N 37°49' W 122°20'0 0.0
2017-Aug-13 00:59N 37°49' W 122°20'0 0.0
2017-Aug-13 00:28N 37°49' W 122°20'0 0.0
2017-Aug-12 23:58N 37°49' W 122°20'0 0.0
2017-Aug-12 23:29N 37°49' W 122°20'0 0.0
2017-Aug-12 22:59N 37°49' W 122°20'0 0.0
2017-Aug-12 22:28N 37°49' W 122°20'0 0.0
2017-Aug-12 21:58N 37°49' W 122°20'0 0.0
2017-Aug-12 21:29N 37°49' W 122°20'0 0.0
2017-Aug-12 20:58N 37°49' W 122°20'0 0.0
2017-Aug-12 20:29N 37°49' W 122°20'0 0.0
2017-Aug-12 19:59N 37°49' W 122°20'0 0.0
2017-Aug-12 19:26N 37°49' W 122°20'0 0.0
2017-Aug-12 18:59N 37°49' W 122°20'0 0.0
2017-Aug-12 18:29N 37°49' W 122°20'0 0.0
2017-Aug-12 17:59N 37°49' W 122°20'0 0.0
2017-Aug-12 17:28N 37°49' W 122°20'0 0.0
2017-Aug-12 16:59N 37°49' W 122°20'0 0.0
2017-Aug-12 16:29N 37°49' W 122°20'0 0.0
2017-Aug-12 15:59N 37°49' W 122°20'0 0.0
2017-Aug-12 15:29N 37°49' W 122°20'0 0.0
2017-Aug-12 14:58N 37°49' W 122°20'0 0.0
2017-Aug-12 14:29N 37°49' W 122°20'0 0.0
2017-Aug-12 13:58N 37°49' W 122°20'0 0.0
2017-Aug-12 13:29N 37°49' W 122°20'0 0.0
2017-Aug-12 12:59N 37°49' W 122°20'0 0.0
2017-Aug-12 12:29N 37°49' W 122°20'0 0.0
2017-Aug-12 11:59N 37°49' W 122°20'0 0.0
2017-Aug-12 11:29N 37°49' W 122°20'0 0.0
2017-Aug-12 10:59N 37°49' W 122°20'0 0.0
2017-Aug-12 10:29N 37°49' W 122°20'0 0.0
2017-Aug-12 09:59N 37°49' W 122°20'0 0.0
2017-Aug-12 09:28N 37°49' W 122°20'0 0.0
2017-Aug-12 08:59N 37°49' W 122°20'0 0.0
2017-Aug-12 08:29N 37°49' W 122°20'0 0.0
2017-Aug-12 07:58N 37°49' W 122°20'0 0.0
2017-Aug-12 07:29N 37°49' W 122°20'0 0.0
2017-Aug-12 06:58N 37°49' W 122°20'0 0.0
2017-Aug-12 06:28N 37°49' W 122°20'0 0.0
2017-Aug-12 05:59N 37°49' W 122°20'0 0.0
2017-Aug-12 05:25N 37°49' W 122°20'0 0.0
2017-Aug-12 04:58N 37°49' W 122°20'0 0.0
2017-Aug-12 04:29N 37°49' W 122°20'0 0.0
2017-Aug-12 03:59N 37°49' W 122°20'0 0.0
2017-Aug-12 03:29N 37°49' W 122°20'0 0.0
2017-Aug-12 02:58N 37°49' W 122°20'0 0.0
2017-Aug-12 02:28N 37°49' W 122°20'0 0.0
2017-Aug-12 01:56N 37°49' W 122°20'0 0.0
2017-Aug-12 01:29N 37°49' W 122°20'0 0.0
2017-Aug-12 00:58N 37°49' W 122°20'0 0.0
2017-Aug-12 00:30N 37°49' W 122°20'1 1.8
2017-Aug-12 00:00N 37°48' W 122°21'2 3.4
2017-Aug-11 23:31N 37°49' W 122°23'4 7.5
2017-Aug-11 23:00N 37°49' W 122°28'714.4
2017-Aug-11 22:31N 37°46' W 122°36'510.2
2017-Aug-11 22:00N 37°43' W 122°41'815.4
2017-Aug-11 21:31N 37°36' W 122°40'1122.4
2017-Aug-11 21:01N 37°25' W 122°40'1122.3
2017-Aug-11 20:30N 37°13' W 122°39'1122.1
2017-Aug-11 20:01N 37°03' W 122°35'1121.9
2017-Aug-11 19:30N 36°52' W 122°32'1121.9
2017-Aug-11 19:01N 36°42' W 122°27'1222.7
2017-Aug-11 18:30N 36°31' W 122°22'1123.2
2017-Aug-11 18:00N 36°20' W 122°17'3222.5
2017-Aug-11 16:34N 35°53' W 121°56'122.3
2017-Aug-11 16:30N 35°52' W 121°55'2322.4
2017-Aug-11 15:29N 35°32' W 121°41'1122.4
2017-Aug-11 15:01N 35°23' W 121°34'1122.8
2017-Aug-11 14:30N 35°13' W 121°26'2322.5
2017-Aug-11 13:30N 34°54' W 121°12'1123.0
2017-Aug-11 13:01N 34°44' W 121°05'1122.6
2017-Aug-11 12:30N 34°34' W 120°58'1121.6
2017-Aug-11 12:01N 34°26' W 120°50'1223.1
2017-Aug-11 11:31N 34°23' W 120°36'1223.2
2017-Aug-11 11:00N 34°20' W 120°22'1223.5
2017-Aug-11 10:30N 34°17' W 120°09'1223.1
2017-Aug-11 10:00N 34°14' W 119°55'1122.6
2017-Aug-11 09:30N 34°11' W 119°42'1122.8
2017-Aug-11 09:01N 34°07' W 119°29'1122.2
2017-Aug-11 08:30N 34°05' W 119°16'918.0
2017-Aug-11 08:00N 34°00' W 119°06'713.5
2017-Aug-11 07:30N 33°57' W 118°59'611.7
2017-Aug-11 07:00N 33°54' W 118°53'3 6.9
2017-Aug-11 06:30N 33°52' W 118°50'611.2
2017-Aug-11 06:00N 33°49' W 118°44'611.6
2017-Aug-11 05:30N 33°47' W 118°38'611.7
2017-Aug-11 05:00N 33°44' W 118°32'611.7
2017-Aug-11 04:30N 33°41' W 118°26'611.5
2017-Aug-11 04:00N 33°38' W 118°19'4 9.1
2017-Aug-11 03:31N 33°41' W 118°15'3 6.3
2017-Aug-11 03:01N 33°44' W 118°16'1 2.7
2017-Aug-11 02:31N 33°45' W 118°16'0 0.7
2017-Aug-11 01:59N 33°45' W 118°16'0 0.0
2017-Aug-11 01:17N 33°45' W 118°16'0 0.0
2017-Aug-11 00:59N 33°45' W 118°16'0 0.0
2017-Aug-11 00:29N 33°45' W 118°16'0 0.0
2017-Aug-10 23:59N 33°45' W 118°16'0 0.0
2017-Aug-10 23:29N 33°45' W 118°16'0 0.0
2017-Aug-10 22:59N 33°45' W 118°16'0 0.0
2017-Aug-10 22:29N 33°45' W 118°16'0 0.0
2017-Aug-10 21:59N 33°45' W 118°16'0 0.0
2017-Aug-10 21:29N 33°45' W 118°16'0 0.0
2017-Aug-10 20:59N 33°45' W 118°16'0 0.0
2017-Aug-10 20:29N 33°45' W 118°16'0 0.0
2017-Aug-10 19:59N 33°45' W 118°16'0 0.0
2017-Aug-10 19:29N 33°45' W 118°16'0 0.0
2017-Aug-10 18:56N 33°45' W 118°16'0 0.0
2017-Aug-10 18:29N 33°45' W 118°16'0 0.0
2017-Aug-10 17:59N 33°45' W 118°16'0 0.0
2017-Aug-10 17:29N 33°45' W 118°16'0 0.0
2017-Aug-10 16:59N 33°45' W 118°16'0 0.0
2017-Aug-10 16:29N 33°45' W 118°16'0 0.0
2017-Aug-10 15:59N 33°45' W 118°16'0 0.0
2017-Aug-10 15:29N 33°45' W 118°16'0 0.0
2017-Aug-10 14:59N 33°45' W 118°16'0 0.0
2017-Aug-10 14:29N 33°45' W 118°16'0 0.0
2017-Aug-10 13:56N 33°45' W 118°16'0 0.0
2017-Aug-10 13:29N 33°45' W 118°16'0 0.0
2017-Aug-10 12:53N 33°45' W 118°16'0 0.0
2017-Aug-10 12:29N 33°45' W 118°16'0 0.0
2017-Aug-10 11:59N 33°45' W 118°16'0 0.0
2017-Aug-10 11:29N 33°45' W 118°16'0 0.0
2017-Aug-10 10:56N 33°45' W 118°16'0 0.0
2017-Aug-10 10:29N 33°45' W 118°16'0 0.0
2017-Aug-10 09:59N 33°45' W 118°16'0 0.0
2017-Aug-10 09:29N 33°45' W 118°16'0 0.0
2017-Aug-10 08:59N 33°45' W 118°16'0 0.0
2017-Aug-10 08:29N 33°45' W 118°16'0 0.0
2017-Aug-10 07:59N 33°45' W 118°16'0 0.0
2017-Aug-10 07:29N 33°45' W 118°16'0 0.0
2017-Aug-10 06:59N 33°45' W 118°16'0 0.0
2017-Aug-10 06:29N 33°45' W 118°16'0 0.0
2017-Aug-10 05:59N 33°45' W 118°16'0 0.0
2017-Aug-10 05:29N 33°45' W 118°16'0 0.0
2017-Aug-10 04:59N 33°45' W 118°16'0 0.0
2017-Aug-10 04:29N 33°45' W 118°16'0 0.0
2017-Aug-10 03:59N 33°45' W 118°16'0 0.0
2017-Aug-10 03:29N 33°45' W 118°16'0 0.0
2017-Aug-10 02:59N 33°45' W 118°16'0 0.0
2017-Aug-10 02:29N 33°45' W 118°16'0 0.0
2017-Aug-10 01:59N 33°45' W 118°16'0 0.0
2017-Aug-10 01:29N 33°45' W 118°16'0 0.0
2017-Aug-10 00:59N 33°45' W 118°16'0 0.0
2017-Aug-10 00:29N 33°45' W 118°16'0 0.0
2017-Aug-09 23:59N 33°45' W 118°16'0 0.0
2017-Aug-09 23:29N 33°45' W 118°16'0 0.0
2017-Aug-09 22:59N 33°45' W 118°16'0 0.0
2017-Aug-09 22:29N 33°45' W 118°16'0 0.0
2017-Aug-09 21:59N 33°45' W 118°16'0 0.0
2017-Aug-09 21:29N 33°45' W 118°16'0 0.0
2017-Aug-09 20:59N 33°45' W 118°16'0 0.0
2017-Aug-09 20:29N 33°45' W 118°16'0 0.0
2017-Aug-09 19:59N 33°45' W 118°16'0 0.0
2017-Aug-09 19:29N 33°45' W 118°16'0 0.0
2017-Aug-09 18:59N 33°45' W 118°16'0 0.0
2017-Aug-09 18:26N 33°45' W 118°16'0 0.0
2017-Aug-09 17:56N 33°45' W 118°16'0 0.0
2017-Aug-09 17:29N 33°45' W 118°16'0 0.0
2017-Aug-09 16:59N 33°45' W 118°16'0 0.0
2017-Aug-09 16:29N 33°45' W 118°16'0 0.0
2017-Aug-09 15:59N 33°45' W 118°16'0 0.0
2017-Aug-09 15:29N 33°45' W 118°16'0 0.0
2017-Aug-09 14:59N 33°45' W 118°16'0 0.0
2017-Aug-09 14:29N 33°45' W 118°16'0 0.0
2017-Aug-09 13:59N 33°45' W 118°16'0 0.0
2017-Aug-09 13:29N 33°45' W 118°16'0 0.0
2017-Aug-09 12:59N 33°45' W 118°16'0 0.0
2017-Aug-09 12:17N 33°45' W 118°16'0 0.0
2017-Aug-09 11:59N 33°45' W 118°16'0 0.0
2017-Aug-09 11:29N 33°45' W 118°16'0 0.0
2017-Aug-09 10:59N 33°45' W 118°16'0 0.0
2017-Aug-09 10:29N 33°45' W 118°16'0 0.0
2017-Aug-09 09:59N 33°45' W 118°16'0 0.0
2017-Aug-09 09:29N 33°45' W 118°16'0 0.0
2017-Aug-09 08:59N 33°45' W 118°16'0 0.0
2017-Aug-09 08:29N 33°45' W 118°16'0 0.0
2017-Aug-09 07:59N 33°45' W 118°16'0 0.0
2017-Aug-09 07:29N 33°45' W 118°16'0 0.0
2017-Aug-09 06:59N 33°45' W 118°16'0 0.0
2017-Aug-09 06:26N 33°45' W 118°16'0 0.0
2017-Aug-09 05:59N 33°45' W 118°16'0 0.0
2017-Aug-09 05:26N 33°45' W 118°16'0 0.0
2017-Aug-09 04:59N 33°45' W 118°16'0 0.0
2017-Aug-09 04:29N 33°45' W 118°16'0 0.0
2017-Aug-09 03:59N 33°45' W 118°16'0 0.0
2017-Aug-09 03:29N 33°45' W 118°16'0 0.0
2017-Aug-09 02:59N 33°45' W 118°16'0 0.0
2017-Aug-09 02:29N 33°45' W 118°16'0 0.0
2017-Aug-09 01:59N 33°45' W 118°16'0 0.0
2017-Aug-09 01:29N 33°45' W 118°16'0 0.0
2017-Aug-09 00:59N 33°45' W 118°16'0 0.0
2017-Aug-09 00:29N 33°45' W 118°16'  

Dump ship's entire track history